Time;durP1;ratioP1;P1;durP2;ratioP2;P2;SDS_P1;SDS_P2;PMS_P1;PMS_P2;Temp;Humidity;BMP_temperature;BMP_pressure;BME280_temperature;BME280_humidity;BME280_pressure;Samples;Min_cycle;Max_cycle;Signal;HPM_P1;HPM_P2
2022/01/06 00:00:43;;;;;;;8.30;4.00;;;;;;;4.00;86.30;99594.69;5071284;28;20047;-84
2022/01/06 00:03:08;;;;;;;11.43;4.13;;;;;;;4.04;86.37;99585.09;5072225;28;20036;-85
2022/01/06 00:05:34;;;;;;;19.15;5.25;;;;;;;4.17;85.92;99588.69;5075304;28;20024;-85
2022/01/06 00:08:01;;;;;;;12.57;3.85;;;;;;;4.28;85.71;99600.59;5076045;28;20467;-85
2022/01/06 00:10:28;;;;;;;15.70;4.50;;;;;;;3.98;85.92;99602.19;5054520;28;20035;-84
2022/01/06 00:15:34;;;;;;;22.95;6.07;;;;;;;4.09;86.67;99603.28;5076508;28;20024;-84
2022/01/06 00:25:50;;;;;;;12.50;3.75;;;;;;;3.96;87.10;99618.59;5075870;28;20044;-85
2022/01/06 00:28:16;;;;;;;10.73;3.83;;;;;;;4.09;85.47;99620.31;5063651;28;20040;-85
2022/01/06 00:30:42;;;;;;;10.85;4.57;;;;;;;3.94;86.42;99617.16;5074637;28;20036;-85
2022/01/06 00:33:07;;;;;;;11.10;5.53;;;;;;;3.78;87.98;99623.97;5072982;28;20037;-85
2022/01/06 00:35:33;;;;;;;12.68;4.18;;;;;;;3.82;87.31;99636.78;5074575;28;20055;-84
2022/01/06 00:38:12;;;;;;;14.48;4.95;;;;;;;4.03;86.27;99637.41;5073915;28;20098;-85
2022/01/06 00:40:38;;;;;;;19.45;5.90;;;;;;;3.90;87.16;99622.19;5075880;28;20040;-85
2022/01/06 00:43:05;;;;;;;13.05;4.72;;;;;;;4.01;85.99;99622.50;5073065;28;20134;-85
2022/01/06 00:45:32;;;;;;;12.63;4.63;;;;;;;4.08;86.46;99626.78;5073257;28;20020;-85
2022/01/06 00:47:58;;;;;;;27.05;5.05;;;;;;;4.19;85.51;99635.16;5074946;28;20079;-85
2022/01/06 00:50:23;;;;;;;10.52;5.10;;;;;;;4.15;85.59;99631.28;5075130;28;20051;-84
2022/01/06 00:52:49;;;;;;;20.10;5.35;;;;;;;3.97;86.42;99627.50;5074409;28;20055;-85
2022/01/06 00:55:15;;;;;;;16.75;5.82;;;;;;;4.10;85.78;99634.63;5072661;28;20028;-85
2022/01/06 00:57:40;;;;;;;17.17;5.85;;;;;;;3.99;86.09;99635.41;5074762;28;20020;-85
2022/01/06 01:00:07;;;;;;;19.20;7.05;;;;;;;4.09;85.97;99641.06;5075016;28;20091;-85
2022/01/06 01:02:32;;;;;;;18.42;5.88;;;;;;;3.95;85.84;99645.78;5073353;28;20055;-84
2022/01/06 01:04:58;;;;;;;14.70;4.78;;;;;;;4.04;85.68;99636.38;5075526;28;20353;-85
2022/01/06 01:07:23;;;;;;;18.73;5.75;;;;;;;3.82;86.59;99642.16;5077667;28;20020;-84
2022/01/06 01:09:48;;;;;;;24.88;6.03;;;;;;;3.95;85.47;99646.63;5078287;28;20411;-86
2022/01/06 01:12:13;;;;;;;11.70;5.25;;;;;;;3.96;85.01;99659.06;5076783;28;20510;-85
2022/01/06 01:14:53;;;;;;;17.63;5.63;;;;;;;3.84;85.37;99658.94;5077697;28;20040;-85
2022/01/06 01:17:19;;;;;;;14.30;4.72;;;;;;;3.79;85.67;99650.72;5077969;28;20491;-85
2022/01/06 01:19:44;;;;;;;18.02;5.65;;;;;;;3.78;86.45;99646.38;5077764;28;20032;-85
2022/01/06 01:22:10;;;;;;;11.95;3.83;;;;;;;3.71;85.76;99651.00;5079092;28;20487;-85
2022/01/06 01:24:35;;;;;;;15.32;3.83;;;;;;;3.72;85.79;99660.75;5078367;28;20064;-84
2022/01/06 01:27:00;;;;;;;13.07;4.65;;;;;;;3.48;86.52;99657.81;5078735;28;20074;-86
2022/01/06 01:29:27;;;;;;;12.23;3.75;;;;;;;3.83;85.29;99649.22;5077738;28;20594;-86
2022/01/06 01:31:55;;;;;;;8.55;2.85;;;;;;;3.77;85.57;99652.81;5062033;28;20169;-84
2022/01/06 01:34:27;;;;;;;11.20;3.97;;;;;;;3.77;85.78;99660.91;5076316;28;20452;-85
2022/01/06 01:36:55;;;;;;;15.93;4.40;;;;;;;3.62;85.93;99667.47;5079301;28;20024;-85
2022/01/06 01:39:21;;;;;;;13.85;5.63;;;;;;;3.55;86.00;99664.00;5077626;28;20045;-85
2022/01/06 01:41:47;;;;;;;17.05;4.05;;;;;;;3.61;85.83;99668.53;5077205;28;20483;-84
2022/01/06 01:44:15;;;;;;;12.82;6.00;;;;;;;3.63;85.96;99681.78;5077062;28;20048;-85
2022/01/06 01:46:44;;;;;;;11.93;3.97;;;;;;;3.69;85.38;99682.75;5058646;28;20028;-84
2022/01/06 01:51:37;;;;;;;42.35;5.53;;;;;;;3.87;84.88;99681.97;5077480;28;20848;-85
2022/01/06 01:54:02;;;;;;;12.88;5.20;;;;;;;3.84;84.72;99693.22;5078145;28;20123;-86
2022/01/06 01:56:27;;;;;;;16.70;5.22;;;;;;;3.80;84.43;99692.00;5078078;28;20028;-86
2022/01/06 01:58:53;;;;;;;19.25;5.47;;;;;;;3.78;85.11;99694.09;5075804;28;20043;-85
2022/01/06 02:01:18;;;;;;;18.33;5.75;;;;;;;3.70;84.88;99697.91;5075742;28;20372;-85
2022/01/06 02:03:43;;;;;;;16.20;4.80;;;;;;;3.88;84.71;99693.59;5060472;28;20040;-85
2022/01/06 02:06:08;;;;;;;13.00;3.75;;;;;;;3.47;85.30;99699.31;5075431;28;20659;-85
2022/01/06 02:08:47;;;;;;;17.67;5.45;;;;;;;3.46;86.08;99703.03;5076936;28;20040;-85
2022/01/06 02:11:12;;;;;;;14.68;5.45;;;;;;;3.33;86.40;99704.81;5076913;28;20111;-85
2022/01/06 02:13:55;;;;;;;20.75;5.72;;;;;;;3.37;86.62;99702.50;5059445;28;20471;-85
2022/01/06 02:16:30;;;;;;;18.02;6.13;;;;;;;3.40;86.14;99712.03;5077272;28;20041;-84
2022/01/06 02:18:55;;;;;;;14.70;4.72;;;;;;;3.57;85.59;99699.66;5075720;28;20053;-85
2022/01/06 02:21:21;;;;;;;10.55;3.85;;;;;;;3.53;86.08;99697.63;5076887;28;20028;-85
2022/01/06 02:23:46;;;;;;;17.05;5.32;;;;;;;3.27;86.09;99706.50;5074519;28;20485;-84
2022/01/06 02:26:12;;;;;;;20.67;6.07;;;;;;;3.49;85.52;99708.03;5076313;28;20031;-85
2022/01/06 02:28:40;;;;;;;11.60;4.00;;;;;;;3.43;85.07;99707.03;5076483;28;20039;-85
2022/01/06 02:31:06;;;;;;;14.98;5.63;;;;;;;3.57;85.02;99706.91;5076883;28;20060;-85
2022/01/06 02:33:32;;;;;;;25.15;5.90;;;;;;;3.18;85.54;99712.38;5073881;28;20531;-85
2022/01/06 02:35:58;;;;;;;20.80;4.57;;;;;;;3.54;84.83;99708.16;5077211;28;20039;-85
2022/01/06 02:38:23;;;;;;;15.80;5.82;;;;;;;3.57;84.33;99707.75;5076989;28;20036;-85
2022/01/06 02:40:49;;;;;;;30.77;5.20;;;;;;;3.45;85.15;99715.72;5077623;28;20069;-85
2022/01/06 02:43:18;;;;;;;21.05;7.13;;;;;;;3.43;84.73;99707.03;5075375;28;20040;-85
2022/01/06 02:45:45;;;;;;;23.05;5.20;;;;;;;3.16;86.34;99712.59;5072365;28;20539;-85
2022/01/06 02:48:23;;;;;;;16.52;5.85;;;;;;;3.19;86.46;99719.41;5074956;28;20033;-84
2022/01/06 02:50:50;;;;;;;20.58;6.10;;;;;;;3.45;85.69;99720.28;5074989;28;20028;-85
2022/01/06 02:53:16;;;;;;;16.00;4.55;;;;;;;3.55;84.91;99717.94;5077006;28;20040;-85
2022/01/06 02:55:50;;;;;;;16.83;5.10;;;;;;;3.73;84.07;99725.25;5075163;28;20023;-85
2022/01/06 02:58:17;;;;;;;11.20;4.07;;;;;;;3.57;84.88;99732.00;5075980;28;20038;-84
2022/01/06 03:00:43;;;;;;;13.30;4.55;;;;;;;3.83;82.93;99730.16;5073259;28;20029;-86
2022/01/06 03:03:08;;;;;;;15.20;5.78;;;;;;;3.96;83.06;99733.78;5075287;28;20096;-86
2022/01/06 03:05:34;;;;;;;14.35;5.07;;;;;;;3.96;82.49;99739.19;5077686;28;20131;-85
2022/01/06 03:07:59;;;;;;;17.95;6.43;;;;;;;3.64;83.32;99731.94;5074340;28;20074;-85
2022/01/06 03:10:26;;;;;;;18.38;5.07;;;;;;;3.67;83.17;99741.47;5077355;28;20031;-85
2022/01/06 03:12:51;;;;;;;18.17;6.50;;;;;;;3.61;83.97;99749.41;5074649;28;20052;-84
2022/01/06 03:15:20;;;;;;;27.00;6.07;;;;;;;3.61;83.88;99746.72;5075688;28;20029;-85
2022/01/06 03:17:49;;;;;;;14.70;3.92;;;;;;;3.66;83.89;99753.31;5076051;28;20064;-85
2022/01/06 03:20:16;;;;;;;23.95;7.32;;;;;;;3.32;85.55;99759.75;5077916;28;20093;-85
2022/01/06 03:22:42;;;;;;;15.55;5.55;;;;;;;3.70;83.81;99757.22;5077491;28;20455;-85
2022/01/06 03:25:11;;;;;;;26.17;5.82;;;;;;;3.62;82.99;99767.22;5057165;28;20037;-85
2022/01/06 03:27:36;;;;;;;24.15;5.72;;;;;;;3.52;84.41;99766.88;5076929;28;20115;-84
2022/01/06 03:30:07;;;;;;;18.27;5.28;;;;;;;3.65;83.38;99759.75;5074327;28;20115;-85
2022/01/06 03:32:33;;;;;;;22.95;6.50;;;;;;;3.28;83.41;99777.41;5076629;28;20036;-84
2022/01/06 03:35:01;;;;;;;11.85;4.43;;;;;;;3.28;84.20;99769.31;5075898;28;20422;-86
2022/01/06 03:37:27;;;;;;;24.60;5.80;;;;;;;3.22;84.55;99771.00;5074738;28;20035;-85
2022/01/06 03:39:53;;;;;;;17.17;4.75;;;;;;;3.44;83.96;99759.88;5071219;28;20044;-86
2022/01/06 03:42:18;;;;;;;10.38;3.88;;;;;;;3.33;84.30;99766.81;5073437;28;20032;-85
2022/01/06 03:44:44;;;;;;;13.98;6.07;;;;;;;3.17;85.47;99776.22;5075297;28;20040;-85
2022/01/06 03:47:09;;;;;;;11.88;4.45;;;;;;;3.26;84.02;99768.69;5073038;28;20024;-85
2022/01/06 03:49:34;;;;;;;19.63;4.03;;;;;;;3.29;84.51;99779.06;5075201;28;20609;-84
2022/01/06 03:52:00;;;;;;;21.75;5.10;;;;;;;3.33;84.10;99776.75;5076329;28;20032;-85
2022/01/06 03:54:26;;;;;;;17.60;5.20;;;;;;;3.29;83.99;99784.44;5059223;28;20063;-85
2022/01/06 03:56:51;;;;;;;15.95;4.82;;;;;;;3.30;84.18;99786.09;5075191;28;20024;-86
2022/01/06 03:59:17;;;;;;;15.32;4.35;;;;;;;3.21;84.61;99793.63;5073823;28;20245;-85
2022/01/06 04:01:43;;;;;;;19.10;5.15;;;;;;;3.22;83.88;99789.88;5057982;28;20027;-85
2022/01/06 04:04:09;;;;;;;9.75;3.63;;;;;;;3.09;84.57;99787.25;5073987;28;20037;-86
2022/01/06 04:06:36;;;;;;;14.32;4.47;;;;;;;3.02;85.11;99798.03;5075342;28;20032;-85
2022/01/06 04:09:02;;;;;;;16.52;5.72;;;;;;;3.10;84.78;99797.81;5075335;28;20019;-85
2022/01/06 04:11:27;;;;;;;15.23;5.40;;;;;;;3.12;84.69;99790.34;5076142;28;20020;-85
2022/01/06 04:13:53;;;;;;;11.95;4.43;;;;;;;3.15;84.20;99795.28;5074323;28;20031;-84
2022/01/06 04:16:18;;;;;;;19.85;5.82;;;;;;;3.10;84.40;99797.81;5057453;28;20545;-84
2022/01/06 04:18:44;;;;;;;42.22;5.70;;;;;;;3.10;84.37;99810.44;5074525;28;20059;-84
2022/01/06 04:24:32;;;;;;;17.30;4.70;;;;;;;3.03;84.04;99810.50;5073740;28;20044;-85
2022/01/06 04:26:57;;;;;;;16.08;6.00;;;;;;;3.03;84.66;99808.59;5074876;28;20017;-85
2022/01/06 04:29:22;;;;;;;21.05;6.25;;;;;;;3.10;84.24;99807.75;5055568;28;20543;-85
2022/01/06 04:31:48;;;;;;;26.92;7.97;;;;;;;3.00;84.06;99819.81;5075808;28;20453;-85
2022/01/06 04:34:13;;;;;;;11.07;5.82;;;;;;;3.04;84.37;99814.81;5075427;28;20132;-85
2022/01/06 04:36:41;;;;;;;16.98;6.13;;;;;;;3.05;84.53;99813.78;5074959;28;20024;-85
2022/01/06 04:39:06;;;;;;;17.80;5.53;;;;;;;3.28;83.09;99812.44;5075172;28;20040;-85
2022/01/06 04:44:35;;;;;;;20.67;7.05;;;;;;;2.95;84.12;99829.56;5064351;28;20530;-85
2022/01/06 04:47:00;;;;;;;16.23;6.45;;;;;;;2.99;83.84;99833.50;5074489;28;20020;-85
2022/01/06 04:49:26;;;;;;;24.50;6.22;;;;;;;2.77;84.52;99836.44;5074598;28;20047;-85
2022/01/06 04:51:52;;;;;;;15.60;4.53;;;;;;;2.85;84.49;99838.91;5056252;28;20467;-85
2022/01/06 04:54:18;;;;;;;18.98;5.72;;;;;;;2.84;84.13;99841.81;5074280;28;20021;-85
2022/01/06 04:56:43;;;;;;;18.48;4.60;;;;;;;2.65;85.50;99841.66;5072856;28;20486;-85
2022/01/06 04:59:09;;;;;;;29.05;7.53;;;;;;;2.80;84.63;99841.41;5057338;28;20032;-85
2022/01/06 05:01:35;;;;;;;16.67;5.32;;;;;;;2.89;84.55;99845.53;5075150;28;20040;-85
2022/01/06 05:04:01;;;;;;;15.55;4.20;;;;;;;2.99;84.13;99849.66;5071442;28;20840;-85
2022/01/06 05:06:27;;;;;;;17.50;4.65;;;;;;;2.83;84.48;99846.38;5076951;28;20027;-85
2022/01/06 05:08:53;;;;;;;38.67;6.22;;;;;;;2.83;84.53;99850.97;5073600;28;20368;-84
2022/01/06 05:11:18;;;;;;;15.88;4.57;;;;;;;2.76;85.25;99857.19;5075072;28;20016;-85
2022/01/06 05:13:43;;;;;;;17.88;3.97;;;;;;;2.67;85.00;99851.19;5074394;28;20654;-85
2022/01/06 05:16:08;;;;;;;13.73;6.00;;;;;;;2.48;86.09;99860.13;5077141;28;20016;-85
2022/01/06 05:18:35;;;;;;;16.40;5.72;;;;;;;2.56;84.85;99860.72;5074737;28;20039;-85
2022/01/06 05:21:01;;;;;;;20.45;4.18;;;;;;;2.48;85.23;99862.81;5076732;28;20032;-84
2022/01/06 05:23:26;;;;;;;17.17;6.03;;;;;;;2.45;85.48;99867.56;5074563;28;20027;-85
2022/01/06 05:25:52;;;;;;;12.88;3.88;;;;;;;2.45;85.30;99875.66;5071794;28;20020;-85
2022/01/06 05:28:17;;;;;;;24.73;5.05;;;;;;;2.39;85.50;99873.78;5075083;28;20415;-86
2022/01/06 05:30:43;;;;;;;15.63;4.25;;;;;;;2.37;85.55;99875.84;5072747;28;20478;-84
2022/01/06 05:33:10;;;;;;;12.13;4.65;;;;;;;2.39;85.09;99881.88;5074757;28;20032;-85
2022/01/06 05:35:35;;;;;;;13.20;5.63;;;;;;;2.30;85.88;99883.09;5054932;28;20027;-85
2022/01/06 05:38:01;;;;;;;16.80;5.00;;;;;;;2.30;85.42;99878.53;5075714;28;20032;-85
2022/01/06 05:40:26;;;;;;;17.95;6.93;;;;;;;2.35;85.50;99891.38;5076347;28;20039;-85
2022/01/06 05:42:51;;;;;;;18.55;4.97;;;;;;;2.21;86.24;99893.25;5074515;28;20016;-85
2022/01/06 05:45:18;;;;;;;14.30;5.25;;;;;;;2.39;85.47;99898.00;5073844;28;20028;-85
2022/01/06 05:47:43;;;;;;;26.00;4.90;;;;;;;2.28;85.47;99893.25;5073353;28;20017;-84
2022/01/06 05:52:54;;;;;;;10.75;5.07;;;;;;;2.33;85.10;99899.66;5073276;28;20059;-84
2022/01/06 05:55:21;;;;;;;11.10;4.75;;;;;;;2.26;85.39;99906.09;5078615;28;20036;-84
2022/01/06 05:57:47;;;;;;;17.15;5.38;;;;;;;2.18;85.29;99909.78;5077613;28;20055;-84
2022/01/06 06:00:12;;;;;;;17.77;5.25;;;;;;;2.20;85.30;99916.63;5076880;28;20459;-84
2022/01/06 06:02:38;;;;;;;24.23;5.47;;;;;;;2.22;85.77;99919.94;5060163;28;20468;-84
2022/01/06 06:05:04;;;;;;;14.75;5.40;;;;;;;2.24;85.34;99929.69;5076402;28;20036;-84
2022/01/06 06:07:29;;;;;;;17.67;5.55;;;;;;;2.34;85.51;99932.78;5078990;28;20036;-85
2022/01/06 06:09:55;;;;;;;13.32;5.18;;;;;;;2.40;85.55;99931.94;5075621;28;20505;-84
2022/01/06 06:12:20;;;;;;;26.05;5.70;;;;;;;2.52;84.23;99926.78;5069556;28;20026;-84
2022/01/06 06:14:46;;;;;;;16.17;4.05;;;;;;;2.39;84.61;99943.75;5075930;28;20028;-84
2022/01/06 06:17:11;;;;;;;20.48;5.50;;;;;;;2.48;84.96;99936.31;5060369;28;20027;-84
2022/01/06 06:19:38;;;;;;;20.95;4.10;;;;;;;2.49;85.06;99955.97;5079949;28;20531;-85
2022/01/06 06:22:04;;;;;;;32.47;4.55;;;;;;;2.59;84.72;99944.78;5075633;28;20102;-84
2022/01/06 06:24:29;;;;;;;27.00;5.28;;;;;;;2.54;84.45;99948.13;5079198;28;20071;-84
2022/01/06 06:26:54;;;;;;;17.85;4.28;;;;;;;2.56;84.74;99943.34;5058463;28;20038;-84
2022/01/06 06:29:20;;;;;;;16.52;4.38;;;;;;;2.61;84.27;99951.63;5078217;28;20021;-83
2022/01/06 06:31:46;;;;;;;12.52;3.88;;;;;;;2.62;83.95;99950.59;5076735;28;20052;-84
2022/01/06 06:34:11;;;;;;;10.45;5.22;;;;;;;2.51;84.34;99949.34;5077089;28;20020;-84
2022/01/06 06:36:37;;;;;;;9.05;4.28;;;;;;;2.49;84.50;99955.97;5076173;28;20028;-84
2022/01/06 06:39:03;;;;;;;17.65;4.47;;;;;;;2.62;84.45;99953.31;5066702;28;20525;-84
2022/01/06 06:41:29;;;;;;;19.70;5.03;;;;;;;2.56;83.69;99959.50;5060160;28;20029;-84
2022/01/06 06:43:54;;;;;;;10.85;4.15;;;;;;;2.52;84.03;99969.84;5075671;28;20031;-84
2022/01/06 06:46:19;;;;;;;18.98;4.70;;;;;;;2.38;84.71;99968.19;5077837;28;20029;-84
2022/01/06 06:48:45;;;;;;;19.75;4.38;;;;;;;2.37;85.27;99978.13;5076642;28;20017;-84
2022/01/06 06:51:13;;;;;;;10.50;3.10;;;;;;;2.25;85.05;99971.69;5059687;28;20115;-84
2022/01/06 06:53:39;;;;;;;27.10;5.68;;;;;;;2.19;85.06;99974.16;5077689;28;20063;-84
2022/01/06 06:56:04;;;;;;;14.20;5.35;;;;;;;2.30;85.12;99979.97;5076376;28;20044;-84
2022/01/06 06:58:42;;;;;;;13.52;3.25;;;;;;;2.35;85.17;99984.72;5076573;28;20048;-84
2022/01/06 07:01:08;;;;;;;13.50;6.50;;;;;;;2.34;84.54;99986.59;5073552;28;20071;-84
2022/01/06 07:03:33;;;;;;;16.23;5.05;;;;;;;2.36;84.27;99991.78;5076587;28;20107;-84
2022/01/06 07:05:58;;;;;;;14.15;3.35;;;;;;;2.33;84.56;99999.25;5058145;28;20085;-84
2022/01/06 07:08:24;;;;;;;10.73;3.90;;;;;;;2.30;85.12;100002.31;5076664;28;20046;-85
2022/01/06 07:10:49;;;;;;;24.83;5.65;;;;;;;2.31;85.30;100000.47;5077068;28;20028;-84
2022/01/06 07:13:16;;;;;;;10.10;4.55;;;;;;;2.38;84.40;100006.69;5078382;28;20486;-85
2022/01/06 07:15:43;;;;;;;15.38;5.13;;;;;;;2.36;85.02;100007.94;5076381;28;20038;-85
2022/01/06 07:18:08;;;;;;;16.08;5.03;;;;;;;2.19;84.86;100021.75;5075863;28;20028;-84
2022/01/06 07:20:33;;;;;;;20.75;5.80;;;;;;;2.17;84.85;100021.97;5077973;28;20084;-85
2022/01/06 07:22:59;;;;;;;12.48;5.68;;;;;;;2.16;84.83;100025.69;5075617;28;20024;-84
2022/01/06 07:25:25;;;;;;;26.92;5.28;;;;;;;2.30;84.79;100028.41;5076727;28;20115;-84
2022/01/06 07:31:12;;;;;;;15.73;5.40;;;;;;;2.16;85.76;100036.44;5074013;28;20082;-84
2022/01/06 07:33:37;;;;;;;12.95;4.53;;;;;;;2.26;85.06;100046.00;5076653;28;20029;-83
2022/01/06 07:36:04;;;;;;;24.85;6.28;;;;;;;2.25;84.97;100041.63;5069206;28;20028;-84
2022/01/06 07:38:29;;;;;;;16.95;5.00;;;;;;;2.12;84.85;100051.31;5065310;28;20143;-84
2022/01/06 07:40:55;;;;;;;12.15;5.15;;;;;;;2.23;84.83;100049.91;5063576;28;20115;-84
2022/01/06 07:43:21;;;;;;;14.00;4.38;;;;;;;2.26;85.07;100051.38;5063572;28;20020;-84
2022/01/06 07:45:46;;;;;;;26.15;5.35;;;;;;;2.20;84.63;100061.91;5064300;28;20034;-84
2022/01/06 07:48:25;;;;;;;23.33;6.65;;;;;;;2.14;84.67;100065.41;5062460;28;20017;-83
2022/01/06 07:50:50;;;;;;;19.23;7.20;;;;;;;2.15;84.81;100072.47;5045578;28;20028;-84
2022/01/06 07:53:15;;;;;;;11.50;4.43;;;;;;;2.12;84.59;100075.53;5062806;28;20032;-84
2022/01/06 07:55:41;;;;;;;16.05;4.82;;;;;;;2.12;84.95;100094.38;5064912;28;20051;-85
2022/01/06 07:58:06;;;;;;;18.10;5.25;;;;;;;2.24;84.66;100091.13;5062239;28;20132;-83
2022/01/06 08:00:32;;;;;;;14.90;5.30;;;;;;;2.26;84.06;100089.06;5063466;28;20027;-84
2022/01/06 08:02:57;;;;;;;16.40;4.93;;;;;;;2.21;84.81;100093.19;5064206;28;20657;-84
2022/01/06 08:05:25;;;;;;;11.88;5.13;;;;;;;2.05;85.17;100096.22;5062378;28;20024;-84
2022/01/06 08:07:51;;;;;;;17.67;6.05;;;;;;;2.20;85.16;100096.88;5064109;28;20031;-84
2022/01/06 08:10:17;;;;;;;16.52;6.32;;;;;;;2.30;84.70;100101.06;5062310;28;20418;-84
2022/01/06 08:12:42;;;;;;;27.30;5.80;;;;;;;2.47;83.90;100100.69;5044474;28;20074;-84
2022/01/06 08:15:08;;;;;;;13.18;4.72;;;;;;;2.32;84.09;100099.00;5061495;28;20032;-85
2022/01/06 08:20:18;;;;;;;13.88;5.50;;;;;;;2.30;84.50;100109.13;5061636;28;20453;-84
2022/01/06 08:22:44;;;;;;;12.55;3.30;;;;;;;2.18;84.58;100109.72;5042232;28;20297;-85
2022/01/06 08:25:10;;;;;;;14.35;6.22;;;;;;;2.21;84.62;100114.72;5063539;28;21411;-84
2022/01/06 08:27:35;;;;;;;12.23;4.15;;;;;;;2.18;84.61;100120.47;5062077;28;20078;-84
2022/01/06 08:30:01;;;;;;;11.55;4.78;;;;;;;2.13;85.34;100122.94;5063541;28;20573;-84
2022/01/06 08:32:26;;;;;;;19.27;6.38;;;;;;;2.36;84.30;100124.47;5062728;28;20032;-85
2022/01/06 08:34:52;;;;;;;12.85;4.93;;;;;;;2.52;83.98;100127.84;5062879;28;20029;-84
2022/01/06 08:37:18;;;;;;;15.32;5.60;;;;;;;2.47;83.87;100133.00;5063260;28;20024;-84
2022/01/06 08:39:43;;;;;;;13.75;3.28;;;;;;;2.53;84.27;100138.41;5061973;28;20079;-85
2022/01/06 08:42:09;;;;;;;14.63;5.15;;;;;;;2.54;84.33;100134.69;5063325;28;20032;-85
2022/01/06 08:44:36;;;;;;;15.10;4.93;;;;;;;2.59;83.42;100136.78;5060901;28;20071;-84
2022/01/06 08:47:01;;;;;;;16.83;3.92;;;;;;;2.37;84.35;100139.59;5063131;28;20028;-84
2022/01/06 08:52:11;;;;;;;11.80;4.18;;;;;;;2.68;83.24;100129.34;5060023;28;20039;-84
2022/01/06 08:54:37;;;;;;;18.73;5.82;;;;;;;2.75;82.56;100135.56;5064322;28;20021;-82
2022/01/06 08:57:03;;;;;;;17.58;5.30;;;;;;;2.73;83.36;100137.63;5062172;28;20024;-85
2022/01/06 08:59:28;;;;;;;9.38;4.60;;;;;;;2.62;83.54;100140.94;5061829;28;20059;-84
2022/01/06 09:01:53;;;;;;;18.05;6.15;;;;;;;2.77;83.02;100148.81;5062387;28;20079;-84
2022/01/06 09:04:20;;;;;;;14.88;5.38;;;;;;;2.95;82.68;100150.94;5063447;28;20078;-84
2022/01/06 09:06:50;;;;;;;17.35;4.47;;;;;;;2.68;83.03;100151.69;5061282;28;20593;-84
2022/01/06 09:09:16;;;;;;;14.85;5.38;;;;;;;2.74;83.38;100154.63;5042479;28;20677;-85
2022/01/06 09:11:42;;;;;;;15.82;5.55;;;;;;;2.81;83.33;100150.06;5063491;28;20110;-84
2022/01/06 09:14:07;;;;;;;20.70;5.88;;;;;;;2.94;83.24;100153.84;5062000;28;20494;-85
2022/01/06 09:16:32;;;;;;;14.13;6.82;;;;;;;2.96;82.37;100162.53;5064026;28;20395;-85
2022/01/06 09:18:58;;;;;;;13.57;4.65;;;;;;;2.99;82.61;100159.47;5060908;28;20491;-84
2022/01/06 09:21:24;;;;;;;21.35;5.25;;;;;;;2.94;83.07;100164.63;5063365;28;20570;-84
2022/01/06 09:23:51;;;;;;;13.38;4.65;;;;;;;3.10;82.69;100163.41;5060903;28;20036;-84
2022/01/06 09:26:17;;;;;;;18.17;6.40;;;;;;;2.96;83.35;100159.84;5064224;28;20036;-85
2022/01/06 09:28:42;;;;;;;14.27;5.55;;;;;;;2.83;83.54;100158.78;5065407;28;20384;-84
2022/01/06 09:31:08;;;;;;;13.32;5.65;;;;;;;2.90;83.62;100165.03;5065413;28;20045;-85
2022/01/06 09:33:33;;;;;;;15.77;5.75;;;;;;;2.92;83.20;100159.44;5066101;28;20033;-85
2022/01/06 09:35:58;;;;;;;18.37;6.33;;;;;;;2.96;83.09;100159.84;5065766;28;20025;-84
2022/01/06 09:38:24;;;;;;;22.50;6.13;;;;;;;3.02;82.53;100172.50;5066337;28;20337;-84
2022/01/06 09:40:49;;;;;;;12.25;4.60;;;;;;;3.08;83.15;100177.09;5064103;28;20037;-85
2022/01/06 09:43:15;;;;;;;18.08;5.57;;;;;;;3.09;82.74;100175.22;5066604;28;20618;-85
2022/01/06 09:45:42;;;;;;;21.30;5.40;;;;;;;3.27;83.19;100172.75;5066182;28;20082;-84
2022/01/06 09:48:08;;;;;;;18.00;6.57;;;;;;;3.07;83.19;100183.50;5067307;28;20898;-83
2022/01/06 09:50:36;;;;;;;20.10;5.25;;;;;;;3.32;83.27;100174.81;5076959;28;20044;-85
2022/01/06 09:53:03;;;;;;;18.55;5.60;;;;;;;3.43;83.01;100178.78;5064461;28;20036;-85
2022/01/06 09:55:28;;;;;;;19.80;6.20;;;;;;;3.59;82.66;100177.53;5066142;28;20035;-85
2022/01/06 09:57:59;;;;;;;17.15;6.28;;;;;;;3.72;82.39;100171.28;5063352;28;20025;-85
2022/01/06 10:00:29;;;;;;;19.52;6.47;;;;;;;3.91;81.36;100168.78;5066660;28;20040;-86
2022/01/06 10:03:01;;;;;;;14.80;5.30;;;;;;;3.97;81.00;100178.72;5046424;28;20035;-86
2022/01/06 10:05:37;;;;;;;11.82;4.88;;;;;;;3.97;81.31;100167.94;5067165;28;20705;-85
2022/01/06 10:08:05;;;;;;;23.70;6.20;;;;;;;3.89;81.87;100172.72;5067568;28;20039;-86
2022/01/06 10:10:30;;;;;;;15.90;7.03;;;;;;;3.88;81.31;100169.22;5046052;28;20024;-85
2022/01/06 10:12:58;;;;;;;19.10;6.38;;;;;;;3.90;79.81;100163.59;5065325;28;20628;-85
2022/01/06 10:15:26;;;;;;;16.95;5.72;;;;;;;3.95;80.03;100158.38;5063449;28;20032;-85
2022/01/06 10:17:52;;;;;;;21.67;5.72;;;;;;;4.01;80.23;100160.25;5067597;28;20491;-86
2022/01/06 10:20:23;;;;;;;14.88;5.13;;;;;;;4.03;79.76;100160.88;5065112;28;20499;-86
2022/01/06 10:22:58;;;;;;;17.58;6.07;;;;;;;4.09;79.99;100164.56;5065700;28;20038;-86
2022/01/06 10:25:26;;;;;;;16.92;5.75;;;;;;;3.88;80.09;100173.75;5066793;28;20032;-86
2022/01/06 10:27:56;;;;;;;11.68;5.00;;;;;;;4.09;80.54;100168.13;5065508;28;20047;-86
2022/01/06 10:30:23;;;;;;;17.25;5.60;;;;;;;4.11;79.19;100161.69;5067203;28;20125;-86
2022/01/06 10:32:48;;;;;;;16.45;5.93;;;;;;;4.34;79.90;100168.44;5063679;28;20123;-85
2022/01/06 10:38:01;;;;;;;17.05;6.97;;;;;;;4.36;79.00;100166.38;5065951;28;20207;-87
2022/01/06 10:40:26;;;;;;;18.55;4.80;;;;;;;4.26;78.66;100169.53;5065314;28;20088;-85
2022/01/06 10:42:55;;;;;;;12.73;4.57;;;;;;;4.18;78.74;100167.88;5067984;28;20151;-87
2022/01/06 10:45:25;;;;;;;33.35;6.25;;;;;;;4.19;79.03;100167.66;5046905;28;20068;-87
2022/01/06 10:47:55;;;;;;;45.90;6.45;;;;;;;4.31;78.90;100167.84;5067858;28;20066;-86
2022/01/06 10:50:24;;;;;;;23.75;6.75;;;;;;;4.47;78.79;100170.28;5066439;28;20028;-87
2022/01/06 10:52:52;;;;;;;14.73;5.68;;;;;;;4.46;78.98;100169.44;5067308;28;20492;-86
2022/01/06 10:55:20;;;;;;;17.52;6.20;;;;;;;4.63;78.44;100168.97;5067771;28;20039;-87
2022/01/06 10:58:00;;;;;;;13.88;4.95;;;;;;;4.36;79.20;100169.91;5048076;28;20028;-86
2022/01/06 11:00:32;;;;;;;22.95;5.97;;;;;;;4.38;78.72;100172.38;5068904;28;20550;-86
2022/01/06 11:03:11;;;;;;;13.90;5.85;;;;;;;4.52;79.04;100171.28;5065638;28;21161;-86
2022/01/06 11:05:39;;;;;;;14.85;6.13;;;;;;;4.64;79.26;100178.72;5067549;28;20040;-84
2022/01/06 11:08:06;;;;;;;24.27;8.00;;;;;;;4.45;78.66;100173.19;5068409;28;20131;-87
2022/01/06 11:10:36;;;;;;;25.30;7.38;;;;;;;4.30;79.07;100165.34;5066246;28;20012;-86
2022/01/06 11:13:01;;;;;;;23.80;5.28;;;;;;;4.44;79.01;100176.94;5066764;28;20028;-87
2022/01/06 11:15:27;;;;;;;17.38;6.07;;;;;;;4.61;77.91;100171.88;5078893;28;20078;-87
2022/01/06 11:17:53;;;;;;;16.42;5.20;;;;;;;4.48;78.53;100166.53;5069396;28;20111;-87
2022/01/06 11:20:24;;;;;;;23.63;8.85;;;;;;;4.10;79.71;100166.25;5067512;28;20029;-87
2022/01/06 11:22:52;;;;;;;23.35;6.68;;;;;;;4.69;78.74;100168.09;5068735;28;20020;-84
2022/01/06 11:25:36;;;;;;;17.52;7.43;;;;;;;4.93;78.42;100176.50;5067912;28;20056;-84
2022/01/06 11:28:07;;;;;;;12.07;6.72;;;;;;;4.79;77.91;100179.28;5067485;28;20039;-86
2022/01/06 11:30:39;;;;;;;19.17;8.70;;;;;;;4.66;79.05;100173.94;5067569;28;20048;-85
2022/01/06 11:33:05;;;;;;;15.90;8.68;;;;;;;4.51;78.72;100175.06;5064799;28;20032;-86
2022/01/06 11:35:46;;;;;;;34.17;9.85;;;;;;;4.70;78.22;100175.16;5068182;28;20424;-85
2022/01/06 11:38:11;;;;;;;21.92;9.68;;;;;;;4.65;77.35;100185.78;5067035;28;20032;-85
2022/01/06 11:40:40;;;;;;;23.75;10.07;;;;;;;4.50;78.07;100170.69;5067559;28;20024;-84
2022/01/06 11:43:06;;;;;;;20.15;7.90;;;;;;;4.45;78.78;100178.59;5067483;28;20649;-85
2022/01/06 11:45:44;;;;;;;18.85;8.65;;;;;;;4.40;78.49;100175.69;5065715;28;20084;-85
2022/01/06 11:48:14;;;;;;;35.50;9.50;;;;;;;4.44;79.88;100182.34;5066686;28;20031;-85
2022/01/06 11:50:51;;;;;;;37.67;11.02;;;;;;;4.51;79.00;100177.75;5065613;28;20567;-85
2022/01/06 11:53:17;;;;;;;26.67;9.77;;;;;;;4.38;78.61;100178.63;5067302;28;20082;-85
2022/01/06 11:55:45;;;;;;;20.48;9.27;;;;;;;4.54;77.66;100180.00;5066921;28;20448;-85
2022/01/06 11:58:17;;;;;;;24.45;9.27;;;;;;;4.72;77.88;100180.38;5064825;28;20024;-85
2022/01/06 12:01:02;;;;;;;29.40;13.77;;;;;;;4.72;77.99;100185.75;5067283;28;20060;-85